Time;durP1;ratioP1;P1;durP2;ratioP2;P2;SDS_P1;SDS_P2;PMS_P1;PMS_P2;Temp;Humidity;BMP_temperature;BMP_pressure;BME280_temperature;BME280_humidity;BME280_pressure;Samples;Min_cycle;Max_cycle;Signal;HPM_P1;HPM_P2
2021/05/19 00:00:08;;;;;;;2.10;1.33;;;;;;;;;;5113436;28;20279;-76
2021/05/19 00:02:53;;;;;;;2.05;1.48;;;;;;;;;;5113983;28;20050;-75
2021/05/19 00:05:40;;;;;;;2.40;1.50;;;;;;;;;;5113141;28;20046;-76
2021/05/19 00:08:24;;;;;;;2.30;1.40;;;;;;;;;;5104368;28;20096;-76
2021/05/19 00:11:10;;;;;;;3.03;1.27;;;;;;;;;;5102569;28;20165;-77
2021/05/19 00:13:54;;;;;;;2.75;1.35;;;;;;;;;;5114893;28;20084;-76
2021/05/19 00:16:39;;;;;;;1.85;1.23;;;;;;;;;;5113598;28;20047;-75
2021/05/19 00:19:23;;;;;;;2.55;1.30;;;;;;;;;;5116072;28;20054;-76
2021/05/19 00:22:08;;;;;;;1.65;1.25;;;;;;;;;;5117191;28;20043;-75
2021/05/19 00:24:53;;;;;;;1.95;1.40;;;;;;;;;;5116570;28;20115;-76
2021/05/19 00:27:38;;;;;;;1.65;1.27;;;;;;;;;;5117222;28;20103;-74
2021/05/19 00:30:22;;;;;;;1.77;1.50;;;;;;;;;;5116287;28;20066;-76
2021/05/19 00:33:07;;;;;;;2.28;1.35;;;;;;;;;;5115624;28;20038;-76
2021/05/19 00:35:56;;;;;;;2.58;1.27;;;;;;;;;;5115519;28;20078;-76
2021/05/19 00:38:41;;;;;;;2.03;1.38;;;;;;;;;;5116772;28;20045;-76
2021/05/19 00:41:25;;;;;;;2.17;1.40;;;;;;;;;;5117682;28;20039;-76
2021/05/19 00:44:14;;;;;;;1.85;1.30;;;;;;;;;;5116703;28;20042;-76
2021/05/19 00:46:59;;;;;;;2.28;1.50;;;;;;;;;;5117086;28;20057;-76
2021/05/19 00:49:44;;;;;;;1.92;1.40;;;;;;;;;;5116697;28;20046;-76
2021/05/19 00:52:29;;;;;;;2.13;1.35;;;;;;;;;;5116513;28;20073;-76
2021/05/19 00:55:13;;;;;;;2.05;1.50;;;;;;;;;;5108836;28;20090;-79
2021/05/19 00:57:58;;;;;;;2.03;1.45;;;;;;;;;;5115996;28;20057;-76
2021/05/19 01:00:43;;;;;;;2.85;1.55;;;;;;;;;;5115992;28;20463;-75
2021/05/19 01:03:28;;;;;;;1.80;1.23;;;;;;;;;;5115896;28;20504;-76
2021/05/19 01:06:20;;;;;;;2.83;1.42;;;;;;;;;;5116022;28;20408;-75
2021/05/19 01:12:13;;;;;;;2.53;1.50;;;;;;;;;;5117458;28;20121;-75
2021/05/19 01:15:03;;;;;;;2.70;1.60;;;;;;;;;;5117483;28;20070;-76
2021/05/19 01:17:48;;;;;;;2.47;1.50;;;;;;;;;;5116597;28;20038;-77
2021/05/19 01:20:33;;;;;;;3.42;1.58;;;;;;;;;;5115088;28;20100;-76
2021/05/19 01:23:18;;;;;;;2.47;1.60;;;;;;;;;;5117229;28;20050;-77
2021/05/19 01:26:03;;;;;;;2.50;1.52;;;;;;;;;;5086763;28;20039;-74
2021/05/19 01:28:48;;;;;;;2.15;1.50;;;;;;;;;;5114937;28;20038;-76
2021/05/19 01:31:33;;;;;;;2.33;1.63;;;;;;;;;;5104415;28;20128;-75
2021/05/19 01:34:18;;;;;;;2.42;1.60;;;;;;;;;;5106467;28;20039;-75
2021/05/19 01:37:03;;;;;;;1.90;1.30;;;;;;;;;;5107396;28;20054;-75
2021/05/19 01:39:47;;;;;;;2.28;1.55;;;;;;;;;;5086758;28;20042;-75
2021/05/19 01:42:32;;;;;;;3.95;1.48;;;;;;;;;;5106477;28;20143;-75
2021/05/19 01:45:18;;;;;;;2.30;1.50;;;;;;;;;;5107809;28;20034;-76
2021/05/19 01:48:04;;;;;;;3.33;1.80;;;;;;;;;;5106169;28;20049;-75
2021/05/19 01:50:49;;;;;;;2.40;1.70;;;;;;;;;;5108211;28;20042;-75
2021/05/19 01:53:33;;;;;;;2.45;1.65;;;;;;;;;;5089831;28;20070;-75
2021/05/19 01:56:18;;;;;;;2.40;1.50;;;;;;;;;;5102125;28;20057;-76
2021/05/19 01:59:03;;;;;;;2.60;1.50;;;;;;;;;;5108143;28;20092;-75
2021/05/19 02:01:48;;;;;;;2.70;1.60;;;;;;;;;;5107043;28;20065;-76
2021/05/19 02:04:33;;;;;;;3.28;1.48;;;;;;;;;;5107205;28;20046;-76
2021/05/19 02:07:17;;;;;;;3.03;1.50;;;;;;;;;;5106212;28;20041;-75
2021/05/19 02:10:04;;;;;;;2.45;1.63;;;;;;;;;;5088092;28;20536;-76
2021/05/19 02:12:49;;;;;;;2.50;1.70;;;;;;;;;;5107842;28;20068;-76
2021/05/19 02:15:33;;;;;;;4.03;1.70;;;;;;;;;;5107822;28;20108;-76
2021/05/19 02:18:18;;;;;;;2.42;1.60;;;;;;;;;;5108028;28;20138;-76
2021/05/19 02:21:03;;;;;;;3.38;1.67;;;;;;;;;;5107694;28;20066;-76
2021/05/19 02:23:48;;;;;;;2.40;1.60;;;;;;;;;;5106679;28;20045;-76
2021/05/19 02:26:33;;;;;;;2.80;1.40;;;;;;;;;;5107380;28;20066;-76
2021/05/19 02:29:17;;;;;;;2.95;1.80;;;;;;;;;;5108087;28;20042;-76
2021/05/19 02:32:02;;;;;;;3.92;1.45;;;;;;;;;;5096161;28;20084;-76
2021/05/19 02:34:47;;;;;;;2.35;1.60;;;;;;;;;;5107831;28;20084;-76
2021/05/19 02:37:31;;;;;;;2.58;1.65;;;;;;;;;;5105597;28;20058;-75
2021/05/19 02:40:16;;;;;;;3.03;1.73;;;;;;;;;;5103117;28;20108;-76
2021/05/19 02:43:01;;;;;;;3.15;1.73;;;;;;;;;;5108467;28;20046;-76
2021/05/19 02:45:45;;;;;;;2.33;1.52;;;;;;;;;;5107476;28;20065;-76
2021/05/19 02:48:30;;;;;;;3.25;1.50;;;;;;;;;;5107445;28;20066;-75
2021/05/19 02:51:17;;;;;;;2.10;1.65;;;;;;;;;;5107973;28;20097;-76
2021/05/19 02:54:01;;;;;;;2.60;1.70;;;;;;;;;;5106433;28;20061;-76
2021/05/19 02:56:46;;;;;;;2.42;1.60;;;;;;;;;;5106835;28;20117;-76
2021/05/19 02:59:30;;;;;;;4.22;1.70;;;;;;;;;;5103446;28;20132;-76
2021/05/19 03:02:15;;;;;;;3.05;1.60;;;;;;;;;;5096532;28;20511;-76
2021/05/19 03:04:59;;;;;;;5.05;1.60;;;;;;;;;;5107183;28;20034;-76
2021/05/19 03:07:45;;;;;;;2.75;1.50;;;;;;;;;;5106517;28;20034;-76
2021/05/19 03:10:29;;;;;;;2.30;1.60;;;;;;;;;;5107654;28;20045;-76
2021/05/19 03:13:13;;;;;;;2.60;1.70;;;;;;;;;;5109862;28;20070;-76
2021/05/19 03:15:58;;;;;;;3.03;1.52;;;;;;;;;;5110362;28;20108;-76
2021/05/19 03:18:43;;;;;;;2.45;1.40;;;;;;;;;;5110713;28;20074;-77
2021/05/19 03:21:27;;;;;;;2.53;1.60;;;;;;;;;;5110408;28;20101;-76
2021/05/19 03:24:12;;;;;;;3.03;1.58;;;;;;;;;;5110148;28;20038;-75
2021/05/19 03:26:56;;;;;;;3.42;1.80;;;;;;;;;;5108953;28;20048;-76
2021/05/19 03:29:41;;;;;;;2.17;1.55;;;;;;;;;;5110967;28;20097;-76
2021/05/19 03:32:25;;;;;;;2.55;1.67;;;;;;;;;;5110632;28;20605;-76
2021/05/19 03:35:10;;;;;;;3.08;1.75;;;;;;;;;;5110974;28;20047;-76
2021/05/19 03:37:55;;;;;;;2.05;1.52;;;;;;;;;;5109897;28;20035;-76
2021/05/19 03:40:40;;;;;;;2.85;1.60;;;;;;;;;;5105321;28;20042;-75
2021/05/19 03:43:24;;;;;;;3.17;1.70;;;;;;;;;;5110404;28;20070;-77
2021/05/19 03:46:09;;;;;;;4.15;1.80;;;;;;;;;;5107221;28;20045;-77
2021/05/19 03:48:54;;;;;;;2.47;1.73;;;;;;;;;;5104222;28;20035;-76
2021/05/19 03:51:39;;;;;;;2.50;1.55;;;;;;;;;;5109034;28;20031;-77
2021/05/19 03:54:23;;;;;;;3.42;1.77;;;;;;;;;;5110343;28;20173;-77
2021/05/19 03:57:08;;;;;;;3.30;2.03;;;;;;;;;;5110354;28;20043;-77
2021/05/19 03:59:53;;;;;;;3.20;1.88;;;;;;;;;;5107229;28;20080;-77
2021/05/19 04:02:37;;;;;;;3.47;1.80;;;;;;;;;;5109589;28;20085;-77
2021/05/19 04:05:22;;;;;;;3.85;1.67;;;;;;;;;;5110749;28;20026;-77
2021/05/19 04:08:07;;;;;;;3.05;1.60;;;;;;;;;;5108723;28;20039;-77
2021/05/19 04:10:51;;;;;;;3.08;1.42;;;;;;;;;;5099830;28;20096;-77
2021/05/19 04:13:36;;;;;;;2.53;1.40;;;;;;;;;;5110782;28;20078;-77
2021/05/19 04:16:20;;;;;;;3.63;1.50;;;;;;;;;;5094131;28;20487;-77
2021/05/19 04:19:05;;;;;;;3.13;1.48;;;;;;;;;;5089933;28;20046;-77
2021/05/19 04:21:50;;;;;;;2.97;1.45;;;;;;;;;;5094963;28;20046;-75
2021/05/19 04:24:34;;;;;;;4.15;2.00;;;;;;;;;;5093231;28;20085;-77
2021/05/19 04:27:19;;;;;;;3.60;1.50;;;;;;;;;;5110089;28;20092;-76
2021/05/19 04:30:04;;;;;;;3.17;1.50;;;;;;;;;;5109974;28;20101;-76
2021/05/19 04:32:49;;;;;;;2.42;1.40;;;;;;;;;;5109052;28;20818;-76
2021/05/19 04:35:33;;;;;;;2.30;1.67;;;;;;;;;;5109533;28;20050;-76
2021/05/19 04:38:18;;;;;;;3.75;1.48;;;;;;;;;;5109802;28;20034;-76
2021/05/19 04:41:03;;;;;;;3.15;1.40;;;;;;;;;;5109960;28;20088;-76
2021/05/19 04:43:47;;;;;;;3.55;1.50;;;;;;;;;;5110293;28;20065;-76
2021/05/19 04:46:32;;;;;;;2.80;1.50;;;;;;;;;;5108805;28;20066;-76
2021/05/19 04:49:17;;;;;;;4.20;1.65;;;;;;;;;;5109424;28;20054;-76
2021/05/19 04:52:01;;;;;;;3.67;1.60;;;;;;;;;;5108204;28;20039;-76
2021/05/19 04:54:46;;;;;;;3.90;1.70;;;;;;;;;;5105571;28;20070;-76
2021/05/19 04:57:30;;;;;;;3.70;1.48;;;;;;;;;;5092035;28;20411;-76
2021/05/19 05:00:15;;;;;;;2.67;1.60;;;;;;;;;;5108952;28;20034;-76
2021/05/19 05:03:00;;;;;;;2.28;1.52;;;;;;;;;;5108850;28;20062;-77
2021/05/19 05:05:45;;;;;;;2.00;1.20;;;;;;;;;;5109665;28;20035;-76
2021/05/19 05:08:29;;;;;;;2.42;1.48;;;;;;;;;;5108031;28;20168;-76
2021/05/19 05:11:15;;;;;;;3.63;1.70;;;;;;;;;;5107684;28;20058;-76
2021/05/19 05:13:59;;;;;;;2.03;1.35;;;;;;;;;;5099588;28;20034;-76
2021/05/19 05:16:44;;;;;;;2.53;1.60;;;;;;;;;;5108381;28;20046;-77
2021/05/19 05:19:28;;;;;;;2.67;1.50;;;;;;;;;;5108805;28;20143;-76
2021/05/19 05:22:13;;;;;;;3.28;1.40;;;;;;;;;;5098079;28;20043;-76
2021/05/19 05:24:58;;;;;;;3.65;1.42;;;;;;;;;;5107101;28;20042;-76
2021/05/19 05:27:43;;;;;;;3.72;1.40;;;;;;;;;;5108429;28;20034;-76
2021/05/19 05:30:28;;;;;;;2.40;1.10;;;;;;;;;;5093913;28;20487;-76
2021/05/19 05:33:12;;;;;;;4.47;1.70;;;;;;;;;;5108185;28;20065;-77
2021/05/19 05:35:57;;;;;;;2.75;1.48;;;;;;;;;;5108419;28;20039;-76
2021/05/19 05:38:41;;;;;;;5.18;1.70;;;;;;;;;;5097115;28;20391;-77
2021/05/19 05:41:26;;;;;;;1.90;1.33;;;;;;;;;;5107181;28;20552;-76
2021/05/19 05:44:11;;;;;;;2.25;1.35;;;;;;;;;;5102565;28;20415;-76
2021/05/19 05:46:55;;;;;;;2.75;1.85;;;;;;;;;;5107524;28;20038;-76
2021/05/19 05:49:40;;;;;;;2.53;1.58;;;;;;;;;;5106773;28;20051;-76
2021/05/19 05:52:25;;;;;;;2.35;1.42;;;;;;;;;;5108327;28;20108;-76
2021/05/19 05:55:09;;;;;;;3.40;1.20;;;;;;;;;;5107647;28;20437;-76
2021/05/19 05:57:54;;;;;;;2.67;1.40;;;;;;;;;;5108151;28;20487;-76
2021/05/19 06:00:39;;;;;;;5.05;1.48;;;;;;;;;;5108508;28;20407;-76
2021/05/19 06:03:23;;;;;;;3.65;1.27;;;;;;;;;;5107717;28;20081;-76
2021/05/19 06:06:08;;;;;;;2.20;1.20;;;;;;;;;;5107456;28;20636;-76
2021/05/19 06:08:53;;;;;;;4.10;1.45;;;;;;;;;;5098048;28;20813;-76
2021/05/19 06:11:37;;;;;;;3.10;1.30;;;;;;;;;;5107851;28;20096;-76
2021/05/19 06:14:22;;;;;;;2.65;1.20;;;;;;;;;;5106809;28;20070;-76
2021/05/19 06:17:09;;;;;;;3.45;1.50;;;;;;;;;;5107893;28;20085;-76
2021/05/19 06:19:53;;;;;;;2.47;1.15;;;;;;;;;;5101482;28;20053;-76
2021/05/19 06:22:38;;;;;;;3.03;1.20;;;;;;;;;;5106982;28;20076;-77
2021/05/19 06:25:23;;;;;;;2.47;1.42;;;;;;;;;;5107833;28;20514;-77
2021/05/19 06:28:07;;;;;;;3.70;1.40;;;;;;;;;;5107167;28;20558;-77
2021/05/19 06:30:52;;;;;;;2.13;1.17;;;;;;;;;;5107610;28;20047;-76
2021/05/19 06:33:36;;;;;;;3.10;1.20;;;;;;;;;;5107661;28;20043;-76
2021/05/19 06:36:21;;;;;;;3.53;1.27;;;;;;;;;;5108265;28;20046;-76
2021/05/19 06:39:06;;;;;;;2.83;1.23;;;;;;;;;;5106464;28;20171;-76
2021/05/19 06:41:51;;;;;;;2.38;1.30;;;;;;;;;;5109158;28;20054;-76
2021/05/19 06:44:35;;;;;;;2.40;1.42;;;;;;;;;;5110631;28;20541;-76
2021/05/19 06:47:20;;;;;;;1.90;1.10;;;;;;;;;;5111935;28;20050;-76
2021/05/19 06:50:05;;;;;;;3.28;1.10;;;;;;;;;;5111579;28;20101;-76
2021/05/19 06:52:50;;;;;;;3.50;1.30;;;;;;;;;;5112075;28;20034;-76
2021/05/19 06:55:34;;;;;;;3.42;1.35;;;;;;;;;;5111683;28;20173;-76
2021/05/19 06:58:19;;;;;;;3.15;1.27;;;;;;;;;;5112028;28;20552;-76
2021/05/19 07:01:04;;;;;;;1.90;1.08;;;;;;;;;;5110534;28;20046;-76
2021/05/19 07:03:51;;;;;;;3.53;1.20;;;;;;;;;;5110353;28;20042;-76
2021/05/19 07:06:36;;;;;;;2.97;1.30;;;;;;;;;;5111947;28;20046;-76
2021/05/19 07:09:20;;;;;;;2.97;1.25;;;;;;;;;;5091512;28;20035;-76
2021/05/19 07:12:05;;;;;;;2.97;1.10;;;;;;;;;;5111765;28;20427;-76
2021/05/19 07:14:57;;;;;;;3.38;1.30;;;;;;;;;;5111438;28;20077;-76
2021/05/19 07:17:42;;;;;;;3.78;1.50;;;;;;;;;;5109737;28;20088;-76
2021/05/19 07:20:27;;;;;;;2.65;1.25;;;;;;;;;;5111234;28;20071;-76
2021/05/19 07:23:11;;;;;;;2.70;1.20;;;;;;;;;;5111232;28;20046;-76
2021/05/19 07:25:56;;;;;;;3.03;1.60;;;;;;;;;;5111312;28;20096;-76
2021/05/19 07:28:41;;;;;;;6.22;1.35;;;;;;;;;;5110634;28;20395;-76
2021/05/19 07:31:25;;;;;;;2.55;1.20;;;;;;;;;;5111151;28;20105;-76
2021/05/19 07:34:10;;;;;;;2.88;1.20;;;;;;;;;;5107541;28;20138;-77
2021/05/19 07:36:54;;;;;;;4.60;1.08;;;;;;;;;;5113284;28;20039;-77
2021/05/19 07:39:39;;;;;;;3.80;1.30;;;;;;;;;;5125360;28;20039;-77
2021/05/19 07:42:23;;;;;;;2.50;1.20;;;;;;;;;;5112292;28;20162;-76
2021/05/19 07:45:08;;;;;;;3.35;1.38;;;;;;;;;;5112524;28;20058;-76
2021/05/19 07:47:53;;;;;;;1.80;1.00;;;;;;;;;;5112734;28;20088;-76
2021/05/19 07:50:38;;;;;;;2.90;1.30;;;;;;;;;;5111049;28;20510;-76
2021/05/19 07:53:22;;;;;;;2.22;1.10;;;;;;;;;;5108280;28;20491;-76
2021/05/19 07:58:58;;;;;;;4.05;1.30;;;;;;;;;;5097915;28;20119;-76
2021/05/19 08:02:01;;;;;;;1.45;1.00;;;;;;;;;;5110192;28;20034;-76
2021/05/19 08:04:45;;;;;;;3.70;1.25;;;;;;;;;;5110410;28;20086;-76
2021/05/19 08:07:30;;;;;;;1.98;1.08;;;;;;;;;;5110089;28;20038;-77
2021/05/19 08:10:14;;;;;;;3.72;1.23;;;;;;;;;;5110023;28;20047;-76
2021/05/19 08:12:59;;;;;;;2.92;1.15;;;;;;;;;;5110041;28;20054;-77
2021/05/19 08:15:44;;;;;;;2.72;1.13;;;;;;;;;;5108082;28;20042;-77
2021/05/19 08:18:28;;;;;;;3.10;1.10;;;;;;;;;;5109813;28;20095;-76
2021/05/19 08:21:13;;;;;;;2.42;1.23;;;;;;;;;;5109479;28;20058;-75
2021/05/19 08:23:58;;;;;;;4.03;1.10;;;;;;;;;;5108087;28;20042;-76
2021/05/19 08:26:42;;;;;;;1.77;1.08;;;;;;;;;;5107503;28;20042;-76
2021/05/19 08:29:27;;;;;;;2.83;1.30;;;;;;;;;;5109584;28;20502;-76
2021/05/19 08:32:11;;;;;;;3.92;1.17;;;;;;;;;;5109108;28;20081;-76
2021/05/19 08:34:56;;;;;;;1.85;1.10;;;;;;;;;;5108551;28;20100;-76
2021/05/19 08:37:41;;;;;;;5.65;2.15;;;;;;;;;;5109167;28;20042;-76
2021/05/19 08:40:27;;;;;;;3.20;0.95;;;;;;;;;;5109557;28;20186;-76
2021/05/19 08:43:14;;;;;;;2.13;1.20;;;;;;;;;;5107991;28;20038;-76
2021/05/19 08:45:59;;;;;;;3.20;1.27;;;;;;;;;;5109095;28;20047;-76
2021/05/19 08:48:52;;;;;;;2.60;1.17;;;;;;;;;;5107514;28;20038;-77
2021/05/19 08:51:37;;;;;;;2.35;1.25;;;;;;;;;;5093041;28;20669;-77
2021/05/19 08:54:23;;;;;;;2.85;1.48;;;;;;;;;;5107678;28;20046;-76
2021/05/19 08:57:08;;;;;;;2.70;1.10;;;;;;;;;;5109328;28;20104;-76
2021/05/19 08:59:52;;;;;;;3.13;1.30;;;;;;;;;;5107837;28;20101;-76
2021/05/19 09:02:37;;;;;;;2.60;1.20;;;;;;;;;;5099775;28;20198;-76
2021/05/19 09:05:22;;;;;;;2.70;1.10;;;;;;;;;;5100477;28;20042;-76
2021/05/19 09:08:07;;;;;;;2.58;1.30;;;;;;;;;;5103595;28;20109;-76
2021/05/19 09:10:59;;;;;;;2.85;1.30;;;;;;;;;;5108080;28;20076;-76
2021/05/19 09:13:45;;;;;;;3.95;1.30;;;;;;;;;;5091211;28;20058;-76
2021/05/19 09:16:30;;;;;;;4.70;1.30;;;;;;;;;;5109215;28;20450;-76
2021/05/19 09:19:14;;;;;;;2.45;1.23;;;;;;;;;;5108316;28;20463;-77
2021/05/19 09:21:59;;;;;;;2.63;1.25;;;;;;;;;;5108877;28;20046;-77
2021/05/19 09:24:44;;;;;;;2.85;1.10;;;;;;;;;;5091930;28;20064;-77
2021/05/19 09:27:38;;;;;;;2.03;1.00;;;;;;;;;;5106777;28;20557;-77
2021/05/19 09:30:42;;;;;;;4.40;1.10;;;;;;;;;;5108522;28;20103;-76
2021/05/19 09:33:28;;;;;;;3.25;1.10;;;;;;;;;;5100088;28;20566;-76
2021/05/19 09:36:15;;;;;;;3.72;1.30;;;;;;;;;;5107784;28;20046;-73
2021/05/19 09:39:00;;;;;;;3.10;1.10;;;;;;;;;;5109036;28;20489;-74
2021/05/19 09:41:45;;;;;;;2.10;1.10;;;;;;;;;;5108043;28;20033;-74
2021/05/19 09:44:29;;;;;;;2.33;1.13;;;;;;;;;;5107038;28;20069;-74
2021/05/19 09:47:14;;;;;;;3.08;1.20;;;;;;;;;;5108233;28;20093;-75
2021/05/19 09:49:59;;;;;;;2.42;1.20;;;;;;;;;;5093483;28;20050;-75
2021/05/19 09:53:03;;;;;;;2.78;1.20;;;;;;;;;;5096447;28;20046;-76
2021/05/19 09:55:51;;;;;;;3.45;1.35;;;;;;;;;;5105639;28;20046;-75
2021/05/19 09:58:36;;;;;;;1.70;1.10;;;;;;;;;;5099886;28;20378;-75
2021/05/19 10:01:21;;;;;;;2.22;1.35;;;;;;;;;;5105370;28;20030;-75
2021/05/19 10:04:06;;;;;;;2.70;1.05;;;;;;;;;;5092760;28;20031;-75
2021/05/19 10:06:51;;;;;;;1.60;1.20;;;;;;;;;;5090180;28;20514;-76
2021/05/19 10:09:36;;;;;;;3.17;1.33;;;;;;;;;;5100898;28;20201;-75
2021/05/19 10:12:20;;;;;;;3.92;1.38;;;;;;;;;;5095249;28;20101;-76
2021/05/19 10:15:07;;;;;;;2.10;0.90;;;;;;;;;;5106138;28;20116;-75
2021/05/19 10:17:53;;;;;;;2.47;1.20;;;;;;;;;;5105821;28;20086;-75
2021/05/19 10:20:42;;;;;;;3.80;1.17;;;;;;;;;;5101837;28;20070;-75
2021/05/19 10:23:28;;;;;;;2.72;1.40;;;;;;;;;;5106239;28;20038;-75
2021/05/19 10:26:13;;;;;;;2.15;1.27;;;;;;;;;;5104594;28;20116;-75
2021/05/19 10:28:59;;;;;;;1.88;1.08;;;;;;;;;;5105259;28;20038;-75
2021/05/19 10:31:44;;;;;;;2.42;1.00;;;;;;;;;;5088510;28;20177;-75
2021/05/19 10:34:43;;;;;;;2.13;1.10;;;;;;;;;;5097058;28;20065;-75
2021/05/19 10:37:28;;;;;;;3.70;1.25;;;;;;;;;;5100670;28;20070;-75
2021/05/19 10:40:13;;;;;;;2.03;1.20;;;;;;;;;;5100959;28;20105;-75
2021/05/19 10:42:58;;;;;;;4.43;1.25;;;;;;;;;;5099170;28;20499;-75
2021/05/19 10:45:51;;;;;;;2.63;1.10;;;;;;;;;;5092746;28;20069;-75
2021/05/19 10:48:36;;;;;;;2.83;1.10;;;;;;;;;;5103633;28;20042;-75
2021/05/19 10:51:41;;;;;;;3.13;1.25;;;;;;;;;;5104343;28;20049;-75
2021/05/19 10:57:33;;;;;;;2.40;1.00;;;;;;;;;;5094024;28;20449;-75
2021/05/19 11:03:09;;;;;;;3.05;1.20;;;;;;;;;;5103348;28;20124;-75
2021/05/19 11:05:54;;;;;;;1.73;1.13;;;;;;;;;;5100342;28;20035;-75
2021/05/19 11:08:39;;;;;;;1.60;1.00;;;;;;;;;;5103251;28;20057;-75
2021/05/19 11:11:30;;;;;;;2.55;1.13;;;;;;;;;;5104476;28;20046;-75
2021/05/19 11:14:27;;;;;;;2.10;1.00;;;;;;;;;;5105321;28;20161;-75
2021/05/19 11:17:20;;;;;;;2.40;0.95;;;;;;;;;;5101403;28;20072;-75
2021/05/19 11:20:05;;;;;;;2.05;1.08;;;;;;;;;;5100813;28;20062;-75
2021/05/19 11:22:50;;;;;;;3.10;1.08;;;;;;;;;;5099055;28;20057;-75
2021/05/19 11:25:35;;;;;;;1.83;1.10;;;;;;;;;;5105600;28;20681;-75
2021/05/19 11:28:26;;;;;;;3.17;1.05;;;;;;;;;;5105347;28;20080;-75
2021/05/19 11:31:17;;;;;;;3.35;1.10;;;;;;;;;;5093336;28;20131;-75
2021/05/19 11:34:04;;;;;;;2.03;1.02;;;;;;;;;;5107324;28;20072;-75
2021/05/19 11:36:53;;;;;;;1.67;0.90;;;;;;;;;;5106946;28;20122;-76
2021/05/19 11:39:39;;;;;;;2.63;1.13;;;;;;;;;;5103315;28;20100;-75
2021/05/19 11:42:24;;;;;;;1.67;0.98;;;;;;;;;;5109014;28;20586;-76
2021/05/19 11:45:10;;;;;;;2.50;1.05;;;;;;;;;;5109270;28;20047;-75
2021/05/19 11:47:54;;;;;;;2.83;1.23;;;;;;;;;;5107884;28;20042;-75
2021/05/19 11:50:39;;;;;;;1.80;1.10;;;;;;;;;;5108722;28;20097;-75
2021/05/19 11:53:24;;;;;;;3.08;1.45;;;;;;;;;;5109445;28;20038;-75
2021/05/19 11:56:09;;;;;;;2.63;1.85;;;;;;;;;;5107477;28;20449;-76
2021/05/19 11:58:54;;;;;;;3.78;1.77;;;;;;;;;;5107195;28;20039;-75
2021/05/19 12:01:38;;;;;;;3.38;2.08;;;;;;;;;;5100196;28;20143;-75
2021/05/19 12:04:23;;;;;;;4.57;2.90;;;;;;;;;;5093521;28;20435;-75
2021/05/19 12:07:09;;;;;;;3.45;2.20;;;;;;;;;;5107843;28;20091;-75
2021/05/19 12:09:53;;;;;;;4.22;2.63;;;;;;;;;;5107586;28;20050;-75
2021/05/19 12:12:38;;;;;;;3.67;2.22;;;;;;;;;;5108144;28;20053;-76
2021/05/19 12:15:23;;;;;;;3.85;2.40;;;;;;;;;;5106162;28;20061;-74
2021/05/19 12:18:09;;;;;;;4.20;1.83;;;;;;;;;;5108481;28;20085;-74
2021/05/19 12:20:53;;;;;;;3.90;1.58;;;;;;;;;;5106800;28;20116;-74
2021/05/19 12:23:38;;;;;;;3.58;1.88;;;;;;;;;;5103662;28;20092;-75
2021/05/19 12:26:25;;;;;;;4.43;2.08;;;;;;;;;;5104868;28;20062;-75
2021/05/19 12:29:28;;;;;;;3.75;2.03;;;;;;;;;;5108819;28;20038;-74
2021/05/19 12:32:19;;;;;;;3.72;2.00;;;;;;;;;;5090251;28;20042;-76
2021/05/19 12:35:03;;;;;;;3.00;1.60;;;;;;;;;;5097964;28;20047;-77
2021/05/19 12:37:49;;;;;;;3.20;1.65;;;;;;;;;;5100247;28;20083;-76
2021/05/19 12:40:33;;;;;;;2.13;1.52;;;;;;;;;;5099133;28;20624;-76
2021/05/19 12:43:25;;;;;;;5.82;1.67;;;;;;;;;;5100589;28;20599;-76
2021/05/19 12:46:10;;;;;;;;;;;;;;;;;;5103681;28;20076;-76
2021/05/19 12:48:55;;;;;;;3.58;1.67;;;;;;;;;;5104132;28;19976;-75
2021/05/19 12:51:47;;;;;;;2.70;1.40;;;;;;;;;;5098234;28;20070;-76
2021/05/19 12:54:34;;;;;;;2.55;1.17;;;;;;;;;;5098697;28;20038;-76
2021/05/19 12:57:19;;;;;;;2.65;1.20;;;;;;;;;;5099911;28;20074;-75
2021/05/19 13:00:14;;;;;;;2.67;1.00;;;;;;;;;;5095734;28;20554;-76
2021/05/19 13:02:59;;;;;;;1.85;1.10;;;;;;;;;;5098173;28;20043;-76
2021/05/19 13:05:43;;;;;;;3.25;0.93;;;;;;;;;;5095671;28;20043;-76
2021/05/19 13:08:28;;;;;;;3.10;1.15;;;;;;;;;;5097325;28;21151;-74
2021/05/19 13:11:21;;;;;;;5.97;1.20;;;;;;;;;;5102124;28;20069;-76
2021/05/19 13:14:07;;;;;;;4.28;1.25;;;;;;;;;;5099567;28;20034;-75
2021/05/19 13:16:54;;;;;;;3.97;1.30;;;;;;;;;;5098005;28;20046;-77
2021/05/19 13:19:39;;;;;;;2.05;1.15;;;;;;;;;;5102022;28;20108;-76
2021/05/19 13:22:27;;;;;;;1.38;0.90;;;;;;;;;;5105588;28;20559;-76
2021/05/19 13:25:22;;;;;;;4.93;1.40;;;;;;;;;;5108671;28;20548;-75
2021/05/19 13:28:07;;;;;;;3.25;1.33;;;;;;;;;;5100468;28;20038;-75
2021/05/19 13:30:52;;;;;;;3.55;1.00;;;;;;;;;;5098541;28;20432;-78
2021/05/19 13:39:21;;;;;;;2.30;1.02;;;;;;;;;;5106679;28;20035;-78
2021/05/19 13:42:05;;;;;;;4.50;1.02;;;;;;;;;;5105908;28;20115;-78
2021/05/19 13:44:51;;;;;;;4.65;1.00;;;;;;;;;;5103021;28;20038;-77
2021/05/19 13:47:36;;;;;;;2.25;1.10;;;;;;;;;;5087026;28;20053;-77
2021/05/19 13:50:21;;;;;;;2.08;0.80;;;;;;;;;;5084807;28;20042;-77
2021/05/19 13:53:05;;;;;;;2.17;0.90;;;;;;;;;;5091038;28;20058;-77
2021/05/19 13:55:50;;;;;;;2.13;1.10;;;;;;;;;;5106381;28;20046;-78
2021/05/19 13:58:35;;;;;;;2.67;0.90;;;;;;;;;;5107492;28;20065;-77
2021/05/19 14:01:20;;;;;;;2.60;1.05;;;;;;;;;;5107939;28;20088;-78
2021/05/19 14:04:05;;;;;;;1.73;0.90;;;;;;;;;;5104629;28;20760;-78
2021/05/19 14:06:50;;;;;;;1.80;0.90;;;;;;;;;;5096527;28;20169;-78
2021/05/19 14:09:36;;;;;;;3.17;0.95;;;;;;;;;;5100634;28;20066;-78
2021/05/19 14:18:27;;;;;;;2.88;1.10;;;;;;;;;;5094899;28;20088;-78
2021/05/19 14:29:52;;;;;;;2.47;1.05;;;;;;;;;;5104859;28;20038;-78
2021/05/19 14:32:36;;;;;;;1.15;0.85;;;;;;;;;;5105636;28;20042;-78
2021/05/19 14:59:45;;;;;;;4.30;1.10;;;;;;;;;;5106846;28;20046;-78
2021/05/19 15:02:30;;;;;;;1.77;1.08;;;;;;;;;;5100901;28;20471;-78
2021/05/19 15:05:15;;;;;;;2.10;0.90;;;;;;;;;;5110569;28;20436;-78
2021/05/19 15:07:59;;;;;;;1.63;0.90;;;;;;;;;;5098404;28;20081;-77
2021/05/19 15:10:46;;;;;;;2.75;0.93;;;;;;;;;;5109179;28;20173;-78
2021/05/19 15:13:31;;;;;;;1.80;1.25;;;;;;;;;;5109333;28;20038;-78
2021/05/19 15:16:16;;;;;;;4.88;1.17;;;;;;;;;;5098188;28;20559;-78
2021/05/19 15:19:01;;;;;;;3.17;1.10;;;;;;;;;;5109658;28;20082;-77
2021/05/19 15:21:46;;;;;;;4.03;1.05;;;;;;;;;;5097437;28;20035;-77
2021/05/19 15:24:31;;;;;;;1.83;0.90;;;;;;;;;;5109709;28;20119;-77
2021/05/19 15:27:15;;;;;;;1.38;0.80;;;;;;;;;;5109310;28;20031;-77
2021/05/19 15:30:00;;;;;;;3.05;1.10;;;;;;;;;;5094633;28;20034;-76
2021/05/19 15:32:44;;;;;;;3.95;1.10;;;;;;;;;;5101881;28;20042;-78
2021/05/19 15:35:29;;;;;;;1.58;0.85;;;;;;;;;;5109925;28;20042;-77
2021/05/19 15:38:13;;;;;;;2.15;1.10;;;;;;;;;;5109917;28;20053;-77
2021/05/19 15:40:58;;;;;;;3.08;1.10;;;;;;;;;;5107998;28;20068;-77
2021/05/19 15:43:43;;;;;;;2.15;1.00;;;;;;;;;;5108024;28;20518;-78
2021/05/19 15:46:28;;;;;;;2.33;0.98;;;;;;;;;;5089885;28;20059;-77
2021/05/19 15:49:13;;;;;;;2.03;1.00;;;;;;;;;;5109747;28;20049;-77
2021/05/19 15:51:58;;;;;;;2.17;1.10;;;;;;;;;;5110607;28;20448;-77
2021/05/19 15:54:42;;;;;;;1.40;1.00;;;;;;;;;;5107534;28;20502;-77
2021/05/19 15:57:26;;;;;;;1.80;1.02;;;;;;;;;;5107656;28;20094;-77
2021/05/19 16:00:11;;;;;;;2.47;0.95;;;;;;;;;;5109936;28;20160;-77
2021/05/19 16:02:56;;;;;;;2.85;1.02;;;;;;;;;;5105119;28;20127;-77
2021/05/19 16:05:41;;;;;;;1.75;1.08;;;;;;;;;;5108538;28;20104;-77
2021/05/19 16:08:29;;;;;;;3.92;1.02;;;;;;;;;;5087930;28;20043;-77
2021/05/19 16:11:13;;;;;;;3.20;1.10;;;;;;;;;;5088862;28;20579;-77
2021/05/19 16:13:58;;;;;;;1.73;0.90;;;;;;;;;;5087776;28;20491;-77
2021/05/19 16:16:42;;;;;;;2.00;0.98;;;;;;;;;;5107410;28;20043;-77
2021/05/19 16:19:27;;;;;;;1.60;1.02;;;;;;;;;;5109896;28;20066;-77
2021/05/19 16:22:12;;;;;;;1.65;0.95;;;;;;;;;;5109552;28;20127;-77
2021/05/19 16:24:57;;;;;;;1.33;0.93;;;;;;;;;;5108965;28;20043;-77
2021/05/19 16:27:42;;;;;;;2.08;1.00;;;;;;;;;;5108552;28;20099;-77
2021/05/19 16:30:46;;;;;;;1.73;1.00;;;;;;;;;;5109677;28;20109;-77
2021/05/19 16:36:53;;;;;;;1.90;0.90;;;;;;;;;;5109374;28;20789;-78
2021/05/19 16:39:39;;;;;;;1.75;1.00;;;;;;;;;;5109545;28;20092;-78
2021/05/19 16:42:23;;;;;;;3.90;1.25;;;;;;;;;;5108675;28;20054;-77
2021/05/19 16:45:08;;;;;;;3.03;1.30;;;;;;;;;;5108282;28;20047;-77
2021/05/19 16:47:53;;;;;;;3.03;1.30;;;;;;;;;;5109562;28;20042;-77
2021/05/19 16:50:38;;;;;;;3.50;1.30;;;;;;;;;;5109539;28;20050;-78
2021/05/19 16:53:23;;;;;;;2.15;1.00;;;;;;;;;;5109352;28;20054;-77
2021/05/19 16:56:07;;;;;;;2.28;1.13;;;;;;;;;;5103729;28;20116;-77
2021/05/19 16:58:52;;;;;;;1.45;1.10;;;;;;;;;;5088135;28;20036;-78
2021/05/19 17:07:29;;;;;;;2.15;1.10;;;;;;;;;;5108156;28;20129;-78
2021/05/19 17:10:14;;;;;;;1.77;1.10;;;;;;;;;;5095119;28;20153;-77
2021/05/19 17:13:01;;;;;;;2.53;1.10;;;;;;;;;;5094976;28;20132;-77
2021/05/19 17:15:45;;;;;;;1.65;1.00;;;;;;;;;;5102815;28;20513;-78
2021/05/19 17:18:30;;;;;;;3.05;1.13;;;;;;;;;;5087519;28;20104;-78
2021/05/19 17:21:14;;;;;;;1.98;0.90;;;;;;;;;;5104573;28;20051;-77
2021/05/19 17:23:59;;;;;;;1.98;1.10;;;;;;;;;;5096755;28;20042;-79
2021/05/19 17:26:44;;;;;;;2.10;1.25;;;;;;;;;;5098613;28;20061;-77
2021/05/19 17:29:29;;;;;;;3.25;1.23;;;;;;;;;;5093876;28;20124;-77
2021/05/19 17:32:14;;;;;;;2.03;0.95;;;;;;;;;;5097376;28;20095;-76
2021/05/19 17:34:58;;;;;;;1.95;0.93;;;;;;;;;;5106854;28;20046;-76
2021/05/19 17:37:43;;;;;;;1.65;1.10;;;;;;;;;;5104348;28;20035;-76